sensor_id;sensor_type;location;lat;lon;timestamp;P1;durP1;ratioP1;P2;durP2;ratioP2
12288;SDS011;6207;49.308;7.336;2022-07-23T00:01:36;13.02;;;12.15;;
12288;SDS011;6207;49.308;7.336;2022-07-23T00:04:04;13.05;;;11.98;;
12288;SDS011;6207;49.308;7.336;2022-07-23T00:06:31;13.45;;;12.35;;
12288;SDS011;6207;49.308;7.336;2022-07-23T00:08:58;12.73;;;11.85;;
12288;SDS011;6207;49.308;7.336;2022-07-23T00:11:25;13.13;;;12.20;;
12288;SDS011;6207;49.308;7.336;2022-07-23T00:13:52;13.02;;;12.02;;
12288;SDS011;6207;49.308;7.336;2022-07-23T00:16:21;13.10;;;12.10;;
12288;SDS011;6207;49.308;7.336;2022-07-23T00:18:48;13.18;;;12.07;;
12288;SDS011;6207;49.308;7.336;2022-07-23T00:21:14;13.10;;;11.90;;
12288;SDS011;6207;49.308;7.336;2022-07-23T00:23:41;13.30;;;12.15;;
12288;SDS011;6207;49.308;7.336;2022-07-23T00:26:08;13.13;;;12.02;;
12288;SDS011;6207;49.308;7.336;2022-07-23T00:28:35;12.85;;;11.75;;
12288;SDS011;6207;49.308;7.336;2022-07-23T00:31:02;13.05;;;12.05;;
12288;SDS011;6207;49.308;7.336;2022-07-23T00:33:29;12.77;;;11.77;;
12288;SDS011;6207;49.308;7.336;2022-07-23T00:35:55;12.50;;;11.50;;
12288;SDS011;6207;49.308;7.336;2022-07-23T00:38:22;12.32;;;11.52;;
12288;SDS011;6207;49.308;7.336;2022-07-23T00:40:49;12.80;;;11.65;;
12288;SDS011;6207;49.308;7.336;2022-07-23T00:43:16;12.82;;;11.82;;
12288;SDS011;6207;49.308;7.336;2022-07-23T00:45:42;12.38;;;11.48;;
12288;SDS011;6207;49.308;7.336;2022-07-23T00:48:09;12.98;;;11.88;;
12288;SDS011;6207;49.308;7.336;2022-07-23T00:50:36;12.35;;;11.55;;
12288;SDS011;6207;49.308;7.336;2022-07-23T00:53:03;12.32;;;11.43;;
12288;SDS011;6207;49.308;7.336;2022-07-23T00:55:30;12.43;;;11.35;;
12288;SDS011;6207;49.308;7.336;2022-07-23T00:57:58;12.45;;;11.45;;
12288;SDS011;6207;49.308;7.336;2022-07-23T01:00:25;12.18;;;11.27;;
12288;SDS011;6207;49.308;7.336;2022-07-23T01:02:52;12.60;;;11.50;;
12288;SDS011;6207;49.308;7.336;2022-07-23T01:05:19;12.73;;;11.73;;
12288;SDS011;6207;49.308;7.336;2022-07-23T01:07:49;12.23;;;11.23;;
12288;SDS011;6207;49.308;7.336;2022-07-23T01:10:21;11.98;;;10.90;;
12288;SDS011;6207;49.308;7.336;2022-07-23T01:13:02;13.18;;;12.07;;
12288;SDS011;6207;49.308;7.336;2022-07-23T01:15:34;12.45;;;11.45;;
12288;SDS011;6207;49.308;7.336;2022-07-23T01:18:02;12.18;;;11.18;;
12288;SDS011;6207;49.308;7.336;2022-07-23T01:20:30;12.70;;;11.55;;
12288;SDS011;6207;49.308;7.336;2022-07-23T01:22:58;11.82;;;10.88;;
12288;SDS011;6207;49.308;7.336;2022-07-23T01:25:25;11.57;;;10.68;;
12288;SDS011;6207;49.308;7.336;2022-07-23T01:27:52;12.60;;;11.45;;
12288;SDS011;6207;49.308;7.336;2022-07-23T01:30:20;11.60;;;10.60;;
12288;SDS011;6207;49.308;7.336;2022-07-23T01:32:47;12.65;;;11.43;;
12288;SDS011;6207;49.308;7.336;2022-07-23T01:35:13;12.48;;;11.38;;
12288;SDS011;6207;49.308;7.336;2022-07-23T01:37:40;11.95;;;10.88;;
12288;SDS011;6207;49.308;7.336;2022-07-23T01:40:07;12.07;;;11.18;;
12288;SDS011;6207;49.308;7.336;2022-07-23T01:42:34;11.70;;;10.75;;
12288;SDS011;6207;49.308;7.336;2022-07-23T01:45:03;12.10;;;10.95;;
12288;SDS011;6207;49.308;7.336;2022-07-23T01:47:30;11.88;;;10.82;;
12288;SDS011;6207;49.308;7.336;2022-07-23T01:49:57;11.43;;;10.45;;
12288;SDS011;6207;49.308;7.336;2022-07-23T01:52:24;11.50;;;10.50;;
12288;SDS011;6207;49.308;7.336;2022-07-23T01:54:51;11.88;;;10.65;;
12288;SDS011;6207;49.308;7.336;2022-07-23T01:57:18;11.25;;;10.27;;
12288;SDS011;6207;49.308;7.336;2022-07-23T01:59:45;10.95;;;9.95;;
12288;SDS011;6207;49.308;7.336;2022-07-23T02:02:12;11.57;;;10.38;;
12288;SDS011;6207;49.308;7.336;2022-07-23T02:04:39;10.98;;;9.88;;
12288;SDS011;6207;49.308;7.336;2022-07-23T02:07:05;10.77;;;9.88;;
12288;SDS011;6207;49.308;7.336;2022-07-23T02:09:32;10.75;;;9.82;;
12288;SDS011;6207;49.308;7.336;2022-07-23T02:12:00;11.80;;;10.70;;
12288;SDS011;6207;49.308;7.336;2022-07-23T02:14:27;11.75;;;10.55;;
12288;SDS011;6207;49.308;7.336;2022-07-23T02:16:54;11.52;;;10.32;;
12288;SDS011;6207;49.308;7.336;2022-07-23T02:19:21;11.50;;;10.48;;
12288;SDS011;6207;49.308;7.336;2022-07-23T02:21:48;11.43;;;10.43;;
12288;SDS011;6207;49.308;7.336;2022-07-23T02:24:15;11.52;;;10.45;;
12288;SDS011;6207;49.308;7.336;2022-07-23T02:26:42;11.27;;;10.10;;
12288;SDS011;6207;49.308;7.336;2022-07-23T02:29:08;11.13;;;10.02;;
12288;SDS011;6207;49.308;7.336;2022-07-23T02:31:35;12.18;;;10.90;;
12288;SDS011;6207;49.308;7.336;2022-07-23T02:34:02;15.70;;;11.15;;
12288;SDS011;6207;49.308;7.336;2022-07-23T02:36:30;13.75;;;11.57;;
12288;SDS011;6207;49.308;7.336;2022-07-23T02:38:57;13.05;;;11.75;;
12288;SDS011;6207;49.308;7.336;2022-07-23T02:41:24;14.35;;;12.95;;
12288;SDS011;6207;49.308;7.336;2022-07-23T02:43:51;13.98;;;11.77;;
12288;SDS011;6207;49.308;7.336;2022-07-23T02:46:18;13.15;;;11.73;;
12288;SDS011;6207;49.308;7.336;2022-07-23T02:48:45;15.60;;;10.77;;
12288;SDS011;6207;49.308;7.336;2022-07-23T02:51:12;13.57;;;12.13;;
12288;SDS011;6207;49.308;7.336;2022-07-23T02:53:40;16.13;;;10.93;;
12288;SDS011;6207;49.308;7.336;2022-07-23T02:56:07;13.25;;;11.85;;
12288;SDS011;6207;49.308;7.336;2022-07-23T02:58:35;13.43;;;11.82;;
12288;SDS011;6207;49.308;7.336;2022-07-23T03:01:02;14.25;;;11.65;;
12288;SDS011;6207;49.308;7.336;2022-07-23T03:03:30;15.25;;;12.32;;
12288;SDS011;6207;49.308;7.336;2022-07-23T03:05:59;13.85;;;12.38;;
12288;SDS011;6207;49.308;7.336;2022-07-23T03:08:53;14.50;;;12.70;;
12288;SDS011;6207;49.308;7.336;2022-07-23T03:11:20;15.55;;;13.05;;
12288;SDS011;6207;49.308;7.336;2022-07-23T03:13:54;15.32;;;12.82;;
12288;SDS011;6207;49.308;7.336;2022-07-23T03:16:23;15.90;;;12.60;;
12288;SDS011;6207;49.308;7.336;2022-07-23T03:18:53;14.35;;;12.65;;
12288;SDS011;6207;49.308;7.336;2022-07-23T03:21:21;16.90;;;14.38;;
12288;SDS011;6207;49.308;7.336;2022-07-23T03:23:48;17.80;;;14.60;;
12288;SDS011;6207;49.308;7.336;2022-07-23T03:26:14;16.27;;;14.57;;
12288;SDS011;6207;49.308;7.336;2022-07-23T03:28:42;17.90;;;13.55;;
12288;SDS011;6207;49.308;7.336;2022-07-23T03:31:09;18.98;;;15.35;;
12288;SDS011;6207;49.308;7.336;2022-07-23T03:33:36;17.27;;;15.15;;
12288;SDS011;6207;49.308;7.336;2022-07-23T03:36:03;19.00;;;15.10;;
12288;SDS011;6207;49.308;7.336;2022-07-23T03:38:34;21.45;;;15.25;;
12288;SDS011;6207;49.308;7.336;2022-07-23T03:41:02;17.08;;;14.38;;
12288;SDS011;6207;49.308;7.336;2022-07-23T03:43:31;19.42;;;15.02;;
12288;SDS011;6207;49.308;7.336;2022-07-23T03:45:57;18.83;;;15.40;;
12288;SDS011;6207;49.308;7.336;2022-07-23T03:48:24;18.23;;;16.17;;
12288;SDS011;6207;49.308;7.336;2022-07-23T03:50:51;22.67;;;16.90;;
12288;SDS011;6207;49.308;7.336;2022-07-23T03:53:18;19.25;;;14.95;;
12288;SDS011;6207;49.308;7.336;2022-07-23T03:55:45;22.48;;;16.58;;
12288;SDS011;6207;49.308;7.336;2022-07-23T03:58:11;21.60;;;15.57;;
12288;SDS011;6207;49.308;7.336;2022-07-23T04:00:39;21.42;;;15.90;;
12288;SDS011;6207;49.308;7.336;2022-07-23T04:03:06;19.73;;;15.98;;
12288;SDS011;6207;49.308;7.336;2022-07-23T04:05:47;21.50;;;16.75;;
12288;SDS011;6207;49.308;7.336;2022-07-23T04:08:14;21.73;;;17.33;;
12288;SDS011;6207;49.308;7.336;2022-07-23T04:10:41;23.58;;;16.55;;
12288;SDS011;6207;49.308;7.336;2022-07-23T04:13:09;21.83;;;16.60;;
12288;SDS011;6207;49.308;7.336;2022-07-23T04:15:35;22.05;;;16.60;;
12288;SDS011;6207;49.308;7.336;2022-07-23T04:18:04;24.13;;;17.98;;
12288;SDS011;6207;49.308;7.336;2022-07-23T04:20:32;23.85;;;16.88;;
12288;SDS011;6207;49.308;7.336;2022-07-23T04:23:06;20.58;;;16.52;;
12288;SDS011;6207;49.308;7.336;2022-07-23T04:25:32;22.33;;;16.58;;
12288;SDS011;6207;49.308;7.336;2022-07-23T04:27:59;27.15;;;19.92;;
12288;SDS011;6207;49.308;7.336;2022-07-23T04:30:26;25.05;;;18.17;;
12288;SDS011;6207;49.308;7.336;2022-07-23T04:32:53;25.17;;;18.83;;
12288;SDS011;6207;49.308;7.336;2022-07-23T04:35:20;23.73;;;17.25;;
12288;SDS011;6207;49.308;7.336;2022-07-23T04:37:47;22.38;;;17.60;;
12288;SDS011;6207;49.308;7.336;2022-07-23T04:40:13;25.83;;;17.70;;
12288;SDS011;6207;49.308;7.336;2022-07-23T04:42:40;25.75;;;18.90;;
12288;SDS011;6207;49.308;7.336;2022-07-23T04:45:07;24.25;;;17.05;;
12288;SDS011;6207;49.308;7.336;2022-07-23T04:47:39;19.77;;;16.98;;
12288;SDS011;6207;49.308;7.336;2022-07-23T04:50:05;22.30;;;16.88;;
12288;SDS011;6207;49.308;7.336;2022-07-23T04:52:32;20.55;;;17.15;;
12288;SDS011;6207;49.308;7.336;2022-07-23T04:54:59;19.27;;;16.63;;
12288;SDS011;6207;49.308;7.336;2022-07-23T04:57:26;20.95;;;16.80;;
12288;SDS011;6207;49.308;7.336;2022-07-23T04:59:53;22.70;;;16.35;;
12288;SDS011;6207;49.308;7.336;2022-07-23T05:02:39;22.25;;;15.95;;
12288;SDS011;6207;49.308;7.336;2022-07-23T05:05:07;18.95;;;16.02;;
12288;SDS011;6207;49.308;7.336;2022-07-23T05:07:34;21.15;;;15.90;;
12288;SDS011;6207;49.308;7.336;2022-07-23T05:10:01;17.77;;;14.85;;
12288;SDS011;6207;49.308;7.336;2022-07-23T05:12:28;17.25;;;15.10;;
12288;SDS011;6207;49.308;7.336;2022-07-23T05:14:55;19.25;;;15.18;;
12288;SDS011;6207;49.308;7.336;2022-07-23T05:17:22;19.70;;;15.57;;
12288;SDS011;6207;49.308;7.336;2022-07-23T05:19:49;17.02;;;15.23;;
12288;SDS011;6207;49.308;7.336;2022-07-23T05:22:15;18.17;;;15.48;;
12288;SDS011;6207;49.308;7.336;2022-07-23T05:24:42;18.33;;;16.42;;
12288;SDS011;6207;49.308;7.336;2022-07-23T05:27:09;19.92;;;14.73;;
12288;SDS011;6207;49.308;7.336;2022-07-23T05:29:38;17.02;;;15.30;;
12288;SDS011;6207;49.308;7.336;2022-07-23T05:32:05;15.73;;;13.43;;
12288;SDS011;6207;49.308;7.336;2022-07-23T05:34:32;16.38;;;14.77;;
12288;SDS011;6207;49.308;7.336;2022-07-23T05:36:59;18.38;;;15.30;;
12288;SDS011;6207;49.308;7.336;2022-07-23T05:39:26;17.50;;;15.38;;
12288;SDS011;6207;49.308;7.336;2022-07-23T05:41:53;15.38;;;13.85;;
12288;SDS011;6207;49.308;7.336;2022-07-23T05:44:20;18.08;;;15.90;;
12288;SDS011;6207;49.308;7.336;2022-07-23T05:46:47;17.48;;;15.48;;
12288;SDS011;6207;49.308;7.336;2022-07-23T05:49:14;16.25;;;14.55;;
12288;SDS011;6207;49.308;7.336;2022-07-23T05:51:41;17.38;;;14.52;;
12288;SDS011;6207;49.308;7.336;2022-07-23T05:54:11;15.40;;;13.55;;
12288;SDS011;6207;49.308;7.336;2022-07-23T05:56:38;15.40;;;13.88;;
12288;SDS011;6207;49.308;7.336;2022-07-23T05:59:05;14.55;;;12.60;;
12288;SDS011;6207;49.308;7.336;2022-07-23T06:01:32;15.10;;;13.70;;
12288;SDS011;6207;49.308;7.336;2022-07-23T06:03:59;14.48;;;12.98;;
12288;SDS011;6207;49.308;7.336;2022-07-23T06:06:27;15.48;;;13.98;;
12288;SDS011;6207;49.308;7.336;2022-07-23T06:08:53;14.60;;;13.10;;
12288;SDS011;6207;49.308;7.336;2022-07-23T06:11:20;14.07;;;12.88;;
12288;SDS011;6207;49.308;7.336;2022-07-23T06:13:47;13.82;;;12.48;;
12288;SDS011;6207;49.308;7.336;2022-07-23T06:16:14;14.25;;;12.95;;
12288;SDS011;6207;49.308;7.336;2022-07-23T06:18:41;14.20;;;12.90;;
12288;SDS011;6207;49.308;7.336;2022-07-23T06:21:08;14.98;;;13.63;;
12288;SDS011;6207;49.308;7.336;2022-07-23T06:23:55;13.70;;;12.60;;
12288;SDS011;6207;49.308;7.336;2022-07-23T06:26:22;14.35;;;13.05;;
12288;SDS011;6207;49.308;7.336;2022-07-23T06:28:49;14.25;;;13.15;;
12288;SDS011;6207;49.308;7.336;2022-07-23T06:31:17;15.20;;;14.00;;
12288;SDS011;6207;49.308;7.336;2022-07-23T06:33:45;14.65;;;13.35;;
12288;SDS011;6207;49.308;7.336;2022-07-23T06:36:12;14.27;;;13.07;;
12288;SDS011;6207;49.308;7.336;2022-07-23T06:38:39;14.68;;;13.35;;
12288;SDS011;6207;49.308;7.336;2022-07-23T06:41:54;14.25;;;13.05;;
12288;SDS011;6207;49.308;7.336;2022-07-23T06:44:26;13.70;;;12.68;;
12288;SDS011;6207;49.308;7.336;2022-07-23T06:47:12;14.35;;;13.25;;
12288;SDS011;6207;49.308;7.336;2022-07-23T06:49:47;13.93;;;12.93;;
12288;SDS011;6207;49.308;7.336;2022-07-23T06:52:26;14.65;;;13.45;;
12288;SDS011;6207;49.308;7.336;2022-07-23T06:54:53;15.27;;;14.05;;
12288;SDS011;6207;49.308;7.336;2022-07-23T06:57:21;14.43;;;13.23;;
12288;SDS011;6207;49.308;7.336;2022-07-23T06:59:50;14.93;;;13.73;;
12288;SDS011;6207;49.308;7.336;2022-07-23T07:02:23;15.20;;;13.95;;
12288;SDS011;6207;49.308;7.336;2022-07-23T07:04:50;15.45;;;14.15;;
12288;SDS011;6207;49.308;7.336;2022-07-23T07:07:17;15.63;;;14.35;;
12288;SDS011;6207;49.308;7.336;2022-07-23T07:09:44;14.85;;;13.70;;
12288;SDS011;6207;49.308;7.336;2022-07-23T07:12:13;15.77;;;14.45;;
12288;SDS011;6207;49.308;7.336;2022-07-23T07:14:40;15.32;;;14.05;;
12288;SDS011;6207;49.308;7.336;2022-07-23T07:17:07;15.05;;;13.63;;
12288;SDS011;6207;49.308;7.336;2022-07-23T07:19:37;15.13;;;13.85;;
12288;SDS011;6207;49.308;7.336;2022-07-23T07:22:04;15.10;;;13.80;;
12288;SDS011;6207;49.308;7.336;2022-07-23T07:24:31;14.88;;;12.98;;
12288;SDS011;6207;49.308;7.336;2022-07-23T07:27:03;14.85;;;13.70;;
12288;SDS011;6207;49.308;7.336;2022-07-23T07:29:30;15.63;;;14.23;;
12288;SDS011;6207;49.308;7.336;2022-07-23T07:31:57;15.18;;;13.98;;
12288;SDS011;6207;49.308;7.336;2022-07-23T07:34:24;15.20;;;14.00;;
12288;SDS011;6207;49.308;7.336;2022-07-23T07:36:50;13.98;;;12.88;;
12288;SDS011;6207;49.308;7.336;2022-07-23T07:39:17;15.18;;;13.88;;
12288;SDS011;6207;49.308;7.336;2022-07-23T07:41:44;14.65;;;13.45;;
12288;SDS011;6207;49.308;7.336;2022-07-23T07:44:10;14.43;;;13.32;;
12288;SDS011;6207;49.308;7.336;2022-07-23T07:46:37;14.60;;;13.30;;
12288;SDS011;6207;49.308;7.336;2022-07-23T07:49:04;14.95;;;13.75;;
12288;SDS011;6207;49.308;7.336;2022-07-23T07:51:32;14.45;;;13.25;;
12288;SDS011;6207;49.308;7.336;2022-07-23T07:53:59;14.38;;;13.20;;
12288;SDS011;6207;49.308;7.336;2022-07-23T07:56:27;14.88;;;13.40;;
12288;SDS011;6207;49.308;7.336;2022-07-23T07:58:54;15.55;;;14.05;;
12288;SDS011;6207;49.308;7.336;2022-07-23T08:01:21;14.50;;;13.20;;
12288;SDS011;6207;49.308;7.336;2022-07-23T08:03:48;13.95;;;12.73;;
12288;SDS011;6207;49.308;7.336;2022-07-23T08:06:15;14.27;;;13.10;;
12288;SDS011;6207;49.308;7.336;2022-07-23T08:08:42;14.40;;;13.20;;
12288;SDS011;6207;49.308;7.336;2022-07-23T08:11:09;15.77;;;14.50;;
12288;SDS011;6207;49.308;7.336;2022-07-23T08:13:35;14.32;;;13.23;;
12288;SDS011;6207;49.308;7.336;2022-07-23T08:16:02;14.77;;;13.57;;
12288;SDS011;6207;49.308;7.336;2022-07-23T08:18:33;14.30;;;13.07;;
12288;SDS011;6207;49.308;7.336;2022-07-23T08:21:00;13.35;;;12.25;;
12288;SDS011;6207;49.308;7.336;2022-07-23T08:23:27;14.85;;;13.45;;
12288;SDS011;6207;49.308;7.336;2022-07-23T08:25:55;13.88;;;12.63;;
12288;SDS011;6207;49.308;7.336;2022-07-23T08:28:23;15.18;;;13.88;;
12288;SDS011;6207;49.308;7.336;2022-07-23T08:30:49;14.43;;;13.23;;
12288;SDS011;6207;49.308;7.336;2022-07-23T08:33:17;15.15;;;13.90;;
12288;SDS011;6207;49.308;7.336;2022-07-23T08:35:56;15.35;;;13.90;;
12288;SDS011;6207;49.308;7.336;2022-07-23T08:38:23;15.98;;;14.60;;
12288;SDS011;6207;49.308;7.336;2022-07-23T08:40:52;15.50;;;14.15;;
12288;SDS011;6207;49.308;7.336;2022-07-23T08:43:22;14.05;;;13.05;;
12288;SDS011;6207;49.308;7.336;2022-07-23T08:45:53;14.32;;;13.20;;
12288;SDS011;6207;49.308;7.336;2022-07-23T08:48:27;14.60;;;13.50;;
12288;SDS011;6207;49.308;7.336;2022-07-23T08:50:59;14.45;;;13.25;;
12288;SDS011;6207;49.308;7.336;2022-07-23T08:53:27;14.90;;;13.73;;
12288;SDS011;6207;49.308;7.336;2022-07-23T08:55:56;14.27;;;13.10;;
12288;SDS011;6207;49.308;7.336;2022-07-23T08:58:24;13.93;;;12.80;;
12288;SDS011;6207;49.308;7.336;2022-07-23T09:00:54;13.50;;;12.50;;
12288;SDS011;6207;49.308;7.336;2022-07-23T09:03:32;14.25;;;13.15;;
12288;SDS011;6207;49.308;7.336;2022-07-23T09:06:01;14.45;;;13.23;;
12288;SDS011;6207;49.308;7.336;2022-07-23T09:08:38;13.68;;;12.48;;
12288;SDS011;6207;49.308;7.336;2022-07-23T09:11:09;14.15;;;13.05;;
12288;SDS011;6207;49.308;7.336;2022-07-23T09:13:41;14.18;;;13.07;;
12288;SDS011;6207;49.308;7.336;2022-07-23T09:16:15;13.10;;;12.20;;
12288;SDS011;6207;49.308;7.336;2022-07-23T09:18:52;13.88;;;12.68;;
12288;SDS011;6207;49.308;7.336;2022-07-23T09:21:27;13.35;;;12.32;;
12288;SDS011;6207;49.308;7.336;2022-07-23T09:24:08;14.55;;;13.35;;
12288;SDS011;6207;49.308;7.336;2022-07-23T09:26:43;14.48;;;13.18;;
12288;SDS011;6207;49.308;7.336;2022-07-23T09:29:20;13.82;;;12.85;;
12288;SDS011;6207;49.308;7.336;2022-07-23T09:34:20;14.93;;;13.63;;
12288;SDS011;6207;49.308;7.336;2022-07-23T09:37:16;13.60;;;12.50;;
12288;SDS011;6207;49.308;7.336;2022-07-23T09:39:46;13.85;;;12.73;;
12288;SDS011;6207;49.308;7.336;2022-07-23T09:42:21;13.85;;;12.90;;
12288;SDS011;6207;49.308;7.336;2022-07-23T09:44:55;13.32;;;12.40;;
12288;SDS011;6207;49.308;7.336;2022-07-23T09:47:23;13.35;;;12.48;;
12288;SDS011;6207;49.308;7.336;2022-07-23T09:52:36;14.25;;;13.13;;
12288;SDS011;6207;49.308;7.336;2022-07-23T09:58:12;13.90;;;12.90;;
12288;SDS011;6207;49.308;7.336;2022-07-23T10:00:39;13.70;;;12.68;;
12288;SDS011;6207;49.308;7.336;2022-07-23T10:03:07;14.10;;;13.20;;
12288;SDS011;6207;49.308;7.336;2022-07-23T10:05:35;13.30;;;12.40;;
12288;SDS011;6207;49.308;7.336;2022-07-23T10:08:03;13.57;;;12.57;;
12288;SDS011;6207;49.308;7.336;2022-07-23T10:10:33;14.13;;;13.13;;
12288;SDS011;6207;49.308;7.336;2022-07-23T10:13:01;14.43;;;13.27;;
12288;SDS011;6207;49.308;7.336;2022-07-23T10:19:25;15.25;;;14.15;;
12288;SDS011;6207;49.308;7.336;2022-07-23T10:21:54;14.57;;;13.52;;
12288;SDS011;6207;49.308;7.336;2022-07-23T12:37:03;13.98;;;12.77;;
12288;SDS011;6207;49.308;7.336;2022-07-23T12:39:30;13.50;;;12.55;;
12288;SDS011;6207;49.308;7.336;2022-07-23T12:41:57;14.68;;;13.57;;
12288;SDS011;6207;49.308;7.336;2022-07-23T12:44:24;14.00;;;12.93;;
12288;SDS011;6207;49.308;7.336;2022-07-23T12:46:53;13.60;;;12.52;;
12288;SDS011;6207;49.308;7.336;2022-07-23T12:49:27;14.00;;;12.90;;
12288;SDS011;6207;49.308;7.336;2022-07-23T12:51:55;13.48;;;12.57;;
12288;SDS011;6207;49.308;7.336;2022-07-23T12:54:26;13.25;;;12.35;;
12288;SDS011;6207;49.308;7.336;2022-07-23T12:56:54;13.27;;;12.20;;
12288;SDS011;6207;49.308;7.336;2022-07-23T12:59:21;13.55;;;12.55;;
12288;SDS011;6207;49.308;7.336;2022-07-23T13:01:55;13.85;;;12.73;;
12288;SDS011;6207;49.308;7.336;2022-07-23T13:04:25;13.85;;;12.80;;
12288;SDS011;6207;49.308;7.336;2022-07-23T13:06:53;13.60;;;12.57;;
12288;SDS011;6207;49.308;7.336;2022-07-23T13:09:26;13.32;;;12.40;;
12288;SDS011;6207;49.308;7.336;2022-07-23T13:11:59;13.82;;;12.90;;
12288;SDS011;6207;49.308;7.336;2022-07-23T13:14:27;14.07;;;12.98;;
12288;SDS011;6207;49.308;7.336;2022-07-23T13:16:55;13.50;;;12.48;;
12288;SDS011;6207;49.308;7.336;2022-07-23T13:19:25;12.98;;;12.10;;
12288;SDS011;6207;49.308;7.336;2022-07-23T13:21:53;13.27;;;12.38;;
12288;SDS011;6207;49.308;7.336;2022-07-23T13:24:20;13.35;;;12.38;;
12288;SDS011;6207;49.308;7.336;2022-07-23T13:26:47;12.48;;;11.55;;
12288;SDS011;6207;49.308;7.336;2022-07-23T13:29:17;13.38;;;12.25;;
12288;SDS011;6207;49.308;7.336;2022-07-23T13:31:45;12.75;;;11.85;;
12288;SDS011;6207;49.308;7.336;2022-07-23T13:34:13;12.48;;;11.65;;
12288;SDS011;6207;49.308;7.336;2022-07-23T13:36:40;12.80;;;11.90;;
12288;SDS011;6207;49.308;7.336;2022-07-23T13:39:10;12.88;;;11.98;;
12288;SDS011;6207;49.308;7.336;2022-07-23T13:41:37;12.55;;;11.68;;
12288;SDS011;6207;49.308;7.336;2022-07-23T13:44:05;12.82;;;11.95;;
12288;SDS011;6207;49.308;7.336;2022-07-23T13:46:32;13.10;;;12.20;;
12288;SDS011;6207;49.308;7.336;2022-07-23T13:49:01;12.82;;;12.02;;
12288;SDS011;6207;49.308;7.336;2022-07-23T13:51:28;13.10;;;12.10;;
12288;SDS011;6207;49.308;7.336;2022-07-23T13:53:55;12.50;;;11.70;;
12288;SDS011;6207;49.308;7.336;2022-07-23T13:56:25;12.98;;;12.07;;
12288;SDS011;6207;49.308;7.336;2022-07-23T13:58:52;12.52;;;11.73;;
12288;SDS011;6207;49.308;7.336;2022-07-23T14:01:19;11.73;;;11.02;;
12288;SDS011;6207;49.308;7.336;2022-07-23T14:03:46;12.45;;;11.65;;
12288;SDS011;6207;49.308;7.336;2022-07-23T14:06:13;12.40;;;11.23;;
12288;SDS011;6207;49.308;7.336;2022-07-23T14:08:42;12.98;;;12.07;;
12288;SDS011;6207;49.308;7.336;2022-07-23T14:11:10;12.52;;;11.73;;
12288;SDS011;6207;49.308;7.336;2022-07-23T14:13:37;12.93;;;12.02;;
12288;SDS011;6207;49.308;7.336;2022-07-23T14:16:04;13.40;;;12.50;;
12288;SDS011;6207;49.308;7.336;2022-07-23T14:18:32;12.68;;;11.77;;
12288;SDS011;6207;49.308;7.336;2022-07-23T14:21:01;12.45;;;11.65;;
12288;SDS011;6207;49.308;7.336;2022-07-23T14:23:28;12.77;;;11.77;;
12288;SDS011;6207;49.308;7.336;2022-07-23T14:25:56;13.00;;;12.07;;
12288;SDS011;6207;49.308;7.336;2022-07-23T14:28:23;12.95;;;12.05;;
12288;SDS011;6207;49.308;7.336;2022-07-23T14:30:50;13.38;;;12.23;;
12288;SDS011;6207;49.308;7.336;2022-07-23T14:33:17;13.50;;;12.40;;
12288;SDS011;6207;49.308;7.336;2022-07-23T14:35:46;12.90;;;11.90;;
12288;SDS011;6207;49.308;7.336;2022-07-23T14:38:13;12.35;;;11.55;;
12288;SDS011;6207;49.308;7.336;2022-07-23T14:40:41;13.10;;;12.10;;
12288;SDS011;6207;49.308;7.336;2022-07-23T14:43:08;12.82;;;11.98;;
12288;SDS011;6207;49.308;7.336;2022-07-23T14:45:37;12.15;;;11.38;;
12288;SDS011;6207;49.308;7.336;2022-07-23T14:48:04;12.93;;;11.80;;
12288;SDS011;6207;49.308;7.336;2022-07-23T14:50:39;13.07;;;12.25;;
12288;SDS011;6207;49.308;7.336;2022-07-23T14:53:13;13.02;;;12.13;;
12288;SDS011;6207;49.308;7.336;2022-07-23T14:55:51;12.80;;;11.90;;
12288;SDS011;6207;49.308;7.336;2022-07-23T14:58:26;13.52;;;12.52;;
12288;SDS011;6207;49.308;7.336;2022-07-23T15:00:53;12.52;;;11.63;;
12288;SDS011;6207;49.308;7.336;2022-07-23T15:03:20;12.10;;;11.40;;
12288;SDS011;6207;49.308;7.336;2022-07-23T15:06:02;12.70;;;11.75;;
12288;SDS011;6207;49.308;7.336;2022-07-23T15:08:29;12.52;;;11.40;;
12288;SDS011;6207;49.308;7.336;2022-07-23T15:11:01;12.35;;;11.55;;
12288;SDS011;6207;49.308;7.336;2022-07-23T15:13:40;12.25;;;11.50;;
12288;SDS011;6207;49.308;7.336;2022-07-23T15:19:23;12.63;;;11.82;;
12288;SDS011;6207;49.308;7.336;2022-07-23T15:25:07;12.25;;;11.45;;
